createdAt,value
2018-10-12T00:04:19.194Z,15.50
2018-10-12T00:09:23.115Z,15.40
2018-10-12T00:14:27.485Z,15.30
2018-10-12T00:19:30.909Z,15.10
2018-10-12T00:24:34.209Z,15.10
2018-10-12T00:29:37.453Z,15.00
2018-10-12T00:34:40.763Z,15.00
2018-10-12T00:39:44.017Z,14.90
2018-10-12T00:44:47.275Z,14.80
2018-10-12T00:49:50.716Z,14.70
2018-10-12T00:54:53.895Z,14.60
2018-10-12T00:59:57.939Z,14.40
2018-10-12T01:05:01.867Z,14.40
2018-10-12T01:10:06.044Z,14.40
2018-10-12T01:15:15.420Z,14.30
2018-10-12T01:20:18.764Z,14.10
2018-10-12T01:25:23.447Z,14.10
2018-10-12T01:30:26.786Z,14.10
2018-10-12T01:35:30.097Z,14.00
2018-10-12T01:40:33.556Z,13.90
2018-10-12T01:45:36.836Z,13.90
2018-10-12T01:50:40.119Z,13.80
2018-10-12T01:55:43.371Z,13.80
2018-10-12T02:00:47.297Z,13.80
2018-10-12T02:05:50.737Z,13.80
2018-10-12T02:10:54.000Z,13.70
2018-10-12T02:15:58.106Z,13.70
2018-10-12T02:21:01.785Z,13.60
2018-10-12T02:26:05.096Z,13.60
2018-10-12T02:31:08.332Z,13.50
2018-10-12T02:36:11.629Z,13.40
2018-10-12T02:41:14.876Z,13.50
2018-10-12T02:46:18.148Z,13.40
2018-10-12T02:51:21.470Z,13.40
2018-10-12T02:56:24.870Z,13.30
2018-10-12T03:01:28.131Z,13.30
2018-10-12T03:06:31.492Z,13.30
2018-10-12T03:11:34.790Z,13.30
2018-10-12T03:21:44.357Z,13.30
2018-10-12T03:26:57.520Z,13.20
2018-10-12T03:32:02.281Z,13.20
2018-10-12T03:37:05.821Z,13.30
2018-10-12T03:42:09.101Z,13.20
2018-10-12T03:47:13.055Z,13.00
2018-10-12T03:52:16.328Z,13.00
2018-10-12T03:57:19.624Z,13.00
2018-10-12T04:02:23.133Z,12.90
2018-10-12T04:07:26.607Z,12.80
2018-10-12T04:12:30.098Z,12.60
2018-10-12T04:17:33.514Z,12.70
2018-10-12T04:22:37.040Z,12.80
2018-10-12T04:27:40.422Z,12.70
2018-10-12T04:32:56.082Z,12.70
2018-10-12T04:38:00.840Z,12.70
2018-10-12T04:43:05.261Z,12.60
2018-10-12T04:48:12.304Z,12.40
2018-10-12T04:53:15.751Z,12.40
2018-10-12T04:58:19.258Z,12.40
2018-10-12T05:03:22.695Z,12.20
2018-10-12T05:08:26.202Z,12.40
2018-10-12T05:13:30.883Z,12.20
2018-10-12T05:18:35.315Z,12.30
2018-10-12T05:23:38.806Z,12.30
2018-10-12T05:28:42.581Z,12.20
2018-10-12T05:33:46.674Z,12.10
2018-10-12T05:38:50.317Z,12.10
2018-10-12T05:43:54.088Z,12.10
2018-10-12T05:49:10.048Z,12.20
2018-10-12T05:54:14.321Z,12.20
2018-10-12T05:59:18.009Z,12.10
2018-10-12T06:04:21.498Z,12.30
2018-10-12T06:09:25.188Z,12.50
2018-10-12T06:14:30.064Z,12.70
2018-10-12T06:19:33.679Z,12.90
2018-10-12T06:24:37.322Z,13.10
2018-10-12T06:29:40.810Z,13.30
2018-10-12T06:34:44.445Z,13.40
2018-10-12T06:39:47.889Z,13.70
2018-10-12T06:44:51.382Z,13.90
2018-10-12T06:49:54.975Z,14.20
2018-10-12T06:54:58.381Z,14.30
2018-10-12T07:00:01.864Z,14.30
2018-10-12T07:05:05.231Z,14.30
2018-10-12T07:10:08.699Z,14.50
2018-10-12T07:15:12.049Z,14.70
2018-10-12T07:20:15.422Z,15.10
2018-10-12T07:25:18.867Z,15.80
2018-10-12T07:30:22.293Z,16.60
2018-10-12T07:35:25.709Z,17.20
2018-10-12T07:40:29.237Z,17.50
2018-10-12T07:45:32.737Z,17.70
2018-10-12T07:50:37.425Z,17.50
2018-10-12T07:55:54.753Z,17.50
2018-10-12T08:01:00.173Z,17.90
2018-10-12T08:06:04.155Z,18.10
2018-10-12T08:11:08.289Z,18.40
2018-10-12T08:16:11.682Z,18.50
2018-10-12T08:21:15.373Z,19.00
2018-10-12T08:26:19.412Z,19.80
2018-10-12T08:31:23.296Z,20.40
2018-10-12T08:36:26.699Z,20.90
2018-10-12T08:41:30.177Z,21.20
2018-10-12T08:51:53.082Z,22.10
2018-10-12T08:56:56.488Z,22.20
2018-10-12T09:01:59.998Z,22.60
2018-10-12T09:07:03.417Z,23.10
2018-10-12T09:12:06.852Z,23.50
2018-10-12T09:17:10.866Z,23.60
2018-10-12T09:22:14.181Z,24.00
2018-10-12T09:27:17.729Z,24.40
2018-10-12T09:32:21.073Z,24.70
2018-10-12T09:37:25.772Z,25.20
2018-10-12T09:42:34.931Z,25.40
2018-10-12T09:47:38.404Z,25.40
2018-10-12T09:52:41.744Z,25.40
2018-10-12T09:57:45.130Z,25.90
2018-10-12T10:03:07.614Z,26.50
2018-10-12T10:08:11.052Z,26.90
2018-10-12T10:13:14.260Z,27.20
2018-10-12T10:18:19.042Z,27.30
2018-10-12T10:23:22.351Z,27.70
2018-10-12T10:28:25.670Z,28.10
2018-10-12T10:33:29.034Z,28.20
2018-10-12T10:38:32.617Z,28.80
2018-10-12T10:43:35.886Z,28.70
2018-10-12T10:48:39.156Z,29.00
2018-10-12T10:53:46.950Z,29.50
2018-10-12T11:04:19.436Z,30.40
2018-10-12T11:09:24.380Z,30.30
2018-10-12T11:14:29.345Z,30.60
2018-10-12T11:19:36.331Z,31.10
2018-10-12T11:24:43.005Z,31.50
2018-10-12T11:29:55.578Z,31.90
2018-10-12T11:35:00.660Z,32.10
2018-10-12T11:40:04.421Z,32.00
2018-10-12T11:45:08.472Z,31.00
2018-10-12T11:50:14.565Z,31.40
2018-10-12T11:55:37.615Z,31.20
2018-10-12T12:00:44.563Z,31.10
2018-10-12T12:05:48.282Z,31.00
2018-10-12T12:10:52.468Z,31.30
2018-10-12T12:15:57.159Z,31.70
2018-10-12T12:21:02.362Z,31.70
2018-10-12T12:26:12.915Z,32.00
2018-10-12T12:31:22.644Z,32.10
2018-10-12T12:36:26.384Z,31.80
2018-10-12T12:41:33.259Z,31.90
2018-10-12T12:46:37.547Z,31.80
2018-10-12T12:51:45.582Z,31.70
2018-10-12T12:56:49.286Z,31.90
2018-10-12T13:01:59.730Z,31.90
2018-10-12T13:07:03.986Z,31.80
2018-10-12T13:12:08.017Z,32.00
2018-10-12T13:17:12.299Z,32.00
2018-10-12T13:22:15.646Z,31.80
2018-10-12T13:27:19.228Z,31.20
2018-10-12T13:32:22.627Z,31.20
2018-10-12T13:37:25.976Z,31.40
2018-10-12T13:42:29.428Z,31.20
2018-10-12T13:47:32.959Z,31.10
2018-10-12T13:52:37.887Z,31.00
2018-10-12T13:57:42.665Z,30.20
2018-10-12T14:02:46.322Z,29.60
2018-10-12T14:07:50.201Z,30.00
2018-10-12T14:12:54.473Z,30.20
2018-10-12T14:17:58.263Z,30.40
2018-10-12T14:23:02.498Z,30.60
2018-10-12T14:28:06.124Z,30.60
2018-10-12T14:33:10.488Z,30.70
2018-10-12T14:38:15.460Z,30.80
2018-10-12T14:43:20.469Z,30.30
2018-10-12T14:48:23.836Z,30.20
2018-10-12T14:53:28.398Z,29.90
2018-10-12T14:58:41.878Z,29.60
2018-10-12T15:03:47.790Z,29.60
2018-10-12T15:08:53.514Z,29.60
2018-10-12T15:13:58.025Z,29.70
2018-10-12T15:19:02.252Z,29.60
2018-10-12T15:24:07.926Z,29.00
2018-10-12T15:29:11.866Z,28.50
2018-10-12T15:34:15.793Z,28.00
2018-10-12T15:39:22.095Z,27.70
2018-10-12T15:44:27.581Z,27.50
2018-10-12T15:49:34.155Z,27.30
2018-10-12T15:54:39.593Z,26.90
2018-10-12T15:59:42.935Z,26.60
2018-10-12T16:04:49.433Z,26.30
2018-10-12T16:09:53.673Z,26.20
2018-10-12T16:15:06.718Z,25.90
2018-10-12T16:20:14.472Z,25.60
2018-10-12T16:26:00.633Z,25.20
2018-10-12T16:31:04.056Z,24.90
2018-10-12T16:36:07.565Z,24.40
2018-10-12T16:41:10.906Z,24.20
2018-10-12T16:46:14.288Z,23.80
2018-10-12T16:51:17.957Z,23.60
2018-10-12T16:56:21.426Z,23.20
2018-10-12T17:01:24.829Z,22.90
2018-10-12T17:06:28.269Z,22.60
2018-10-12T17:11:31.694Z,22.30
2018-10-12T17:16:35.136Z,21.90
2018-10-12T17:21:38.740Z,21.60
2018-10-12T17:26:43.507Z,21.40
2018-10-12T17:31:47.008Z,21.20
2018-10-12T17:36:51.242Z,21.00
2018-10-12T17:41:54.698Z,20.80
2018-10-12T17:46:58.264Z,20.70
2018-10-12T17:52:01.726Z,20.50
2018-10-12T17:57:05.833Z,20.40
2018-10-12T18:02:09.518Z,20.20
2018-10-12T18:07:12.871Z,20.00
2018-10-12T18:12:16.342Z,19.80
2018-10-12T18:17:19.832Z,19.70
2018-10-12T18:22:23.161Z,19.50
2018-10-12T18:27:26.538Z,19.40
2018-10-12T18:32:30.045Z,19.20
2018-10-12T18:37:33.375Z,19.00
2018-10-12T18:42:36.812Z,18.80
2018-10-12T18:47:40.397Z,18.70
2018-10-12T18:52:43.819Z,18.60
2018-10-12T18:57:47.274Z,18.40
2018-10-12T19:02:50.703Z,18.30
2018-10-12T19:07:54.242Z,18.30
2018-10-12T19:12:57.789Z,18.30
2018-10-12T19:18:01.797Z,18.20
2018-10-12T19:23:05.380Z,18.20
2018-10-12T19:28:08.785Z,18.20
2018-10-12T19:33:12.237Z,18.20
2018-10-12T19:38:15.880Z,18.20
2018-10-12T19:43:19.324Z,18.00
2018-10-12T19:48:22.850Z,17.90
2018-10-12T19:53:26.282Z,17.80
2018-10-12T19:58:29.857Z,17.80
2018-10-12T20:03:33.353Z,17.70
2018-10-12T20:08:36.693Z,17.70
2018-10-12T20:13:40.130Z,17.70
2018-10-12T20:18:43.758Z,17.70
2018-10-12T20:23:47.273Z,17.70
2018-10-12T20:28:50.938Z,17.60
2018-10-12T20:33:54.407Z,17.60
2018-10-12T20:38:57.826Z,17.50
2018-10-12T20:44:01.311Z,17.50
2018-10-12T20:49:04.802Z,17.40
2018-10-12T20:54:08.420Z,17.40
2018-10-12T20:59:12.452Z,17.30
2018-10-12T21:04:15.864Z,17.30
2018-10-12T21:09:19.330Z,17.20
2018-10-12T21:14:23.498Z,17.10
2018-10-12T21:19:27.015Z,17.10
2018-10-12T21:24:30.561Z,17.00
2018-10-12T21:29:33.927Z,16.90
2018-10-12T21:34:38.595Z,16.80
2018-10-12T21:39:42.084Z,16.70
2018-10-12T21:44:45.698Z,16.60
2018-10-12T21:49:49.332Z,16.50
2018-10-12T21:54:52.778Z,16.50
2018-10-12T21:59:56.400Z,16.30
2018-10-12T22:05:01.218Z,16.40
2018-10-12T22:10:06.715Z,16.30
2018-10-12T22:15:10.162Z,16.40
2018-10-12T22:20:13.850Z,16.50
2018-10-12T22:25:17.392Z,16.30
2018-10-12T22:30:20.938Z,16.30
2018-10-12T22:35:24.410Z,16.30
2018-10-12T22:40:27.950Z,16.40
2018-10-12T22:45:31.457Z,16.30
2018-10-12T22:50:34.891Z,16.30
2018-10-12T22:55:38.796Z,16.10
2018-10-12T23:00:42.316Z,15.90
2018-10-12T23:05:45.939Z,15.80
2018-10-12T23:10:49.550Z,15.60
2018-10-12T23:15:52.997Z,15.60
2018-10-12T23:20:56.579Z,15.60
2018-10-12T23:26:00.264Z,15.60
2018-10-12T23:31:03.753Z,15.60
2018-10-12T23:36:07.353Z,15.50
2018-10-12T23:41:10.834Z,15.50
2018-10-12T23:46:14.244Z,15.40
2018-10-12T23:51:17.779Z,15.40
2018-10-12T23:56:21.479Z,15.40
